Aeroporto :
LOGIN :

Iscrizione | Disclaimer

   EN    FR    IT 

 










Sommario :    VFR   VFR Marginale   IFR   IFR Intensivo   IFR Molto Intensivo
Visibilità : 
Base nubi : 
>= 8 km
>= 3000ft
5 / 8 km
1000 / 3000 ft
1500m / 5 km
500 / 1000 ft
800 / 1500m
200 / 500 ft
< 800m
< 200 ft
Simboli :   Temporali  Nebbia  Neve Forte  Precipitazioni Forti  Vento > 20 kt
SIGMETs :   Varie  Temporali  Ghiacco  Turbolenza  Onda orograficha  Ceneri Vulcaniche






- Altitudine del aeroporto : 1043 ft
- Codice IATA : SLD


LZSL - Sliac

ULTIMO METAR :
  • 191700Z 22009KT 200V260 9999 -SN SCT030 OVC055 06/00 Q1016

METARs OBSOLETI :
  • 191630Z 24008KT 9999 BKN038 OVC067 07/M01 Q1016
  • 191600Z 22006KT 9999 SCT041 OVC057 06/M00 Q1016
  • 191530Z 22008KT 9999 SCT042 OVC053 07/M00 Q1016
  • 191500Z 22010KT 9999 SCT043 OVC051 07/M00 Q1016
  • 191430Z 22005KT 9999 SCT043 BKN053 08/M00 Q1016

TAF TAF LZSL
Valido dal 19 a 15 ore il 20 a 00 ore UTC


191400Z 1915/2000 23008KT 9999 SCT040 BKN050
TEMPO 1917/1923 4500 -RA FEW010 BKN025 OVC040



MetMap, La meteo Aeronautica in un colpo d'occhio ! - Copyright ORBIFLY Dicembre 2007 - Disclaimer

ORBIFLY MET'MAP TEAM :

Programmazione e sviluppo : Alexandra Zaïnal
Concezione : Baudouin d'Aumeries
Aiuto per la programmazione : Marc-Olivier Méhu
Supporto tecnico e logistico : Manuel Goepfert
Aiuto per la traduzione : Arnaldo La Scala

Contatto : metmap@orbifly.com




FONTI E CREDITI :

   NOAA